createdAt,value
2023-04-28T00:01:38.538Z,4.57
2023-04-28T00:04:05.577Z,5.63
2023-04-28T00:06:32.375Z,5.37
2023-04-28T00:08:59.063Z,5.63
2023-04-28T00:11:25.857Z,5.73
2023-04-28T00:13:52.552Z,5.73
2023-04-28T00:16:19.358Z,5.20
2023-04-28T00:18:46.173Z,5.17
2023-04-28T00:21:12.899Z,5.43
2023-04-28T00:23:39.585Z,5.50
2023-04-28T00:26:06.247Z,5.50
2023-04-28T00:28:34.749Z,5.40
2023-04-28T00:31:02.353Z,5.73
2023-04-28T00:33:29.051Z,5.70
2023-04-28T00:36:00.741Z,5.47
2023-04-28T00:38:27.610Z,5.90
2023-04-28T00:40:54.360Z,5.87
2023-04-28T00:43:21.151Z,5.90
2023-04-28T00:45:52.171Z,5.70
2023-04-28T00:48:19.397Z,6.10
2023-04-28T00:50:47.852Z,5.87
2023-04-28T00:53:14.786Z,6.00
2023-04-28T00:55:41.538Z,5.93
2023-04-28T00:58:09.545Z,5.57
2023-04-28T01:00:36.361Z,6.00
2023-04-28T01:03:03.611Z,6.37
2023-04-28T01:05:31.857Z,5.50
2023-04-28T01:07:59.938Z,6.30
2023-04-28T01:10:26.817Z,5.30
2023-04-28T01:12:53.719Z,5.17
2023-04-28T01:15:21.396Z,5.73
2023-04-28T01:17:48.367Z,6.10
2023-04-28T01:20:16.137Z,5.20
2023-04-28T01:22:43.138Z,5.50
2023-04-28T01:25:09.853Z,5.47
2023-04-28T01:27:36.571Z,5.53
2023-04-28T01:30:03.481Z,5.30
2023-04-28T01:32:30.507Z,5.80
2023-04-28T01:34:57.193Z,5.60
2023-04-28T01:37:24.078Z,5.83
2023-04-28T01:39:50.980Z,5.63
2023-04-28T01:42:17.633Z,5.50
2023-04-28T01:44:44.339Z,5.77
2023-04-28T01:47:11.128Z,5.67
2023-04-28T01:49:37.759Z,5.60
2023-04-28T01:52:04.785Z,5.53
2023-04-28T01:54:31.477Z,5.40
2023-04-28T01:56:58.140Z,5.50
2023-04-28T01:59:24.989Z,5.37
2023-04-28T02:01:51.765Z,6.20
2023-04-28T02:04:18.707Z,5.83
2023-04-28T02:06:45.779Z,5.93
2023-04-28T02:09:12.479Z,5.87
2023-04-28T02:11:39.187Z,5.67
2023-04-28T02:14:05.842Z,5.37
2023-04-28T02:16:33.913Z,5.27
2023-04-28T02:19:00.717Z,6.50
2023-04-28T02:21:27.967Z,5.53
2023-04-28T02:23:54.823Z,5.63
2023-04-28T02:26:21.542Z,5.70
2023-04-28T02:28:49.176Z,6.00
2023-04-28T02:31:16.307Z,5.73
2023-04-28T02:33:43.097Z,5.37
2023-04-28T02:36:10.646Z,5.63
2023-04-28T02:38:37.335Z,5.90
2023-04-28T02:41:05.593Z,5.27
2023-04-28T02:43:33.190Z,5.70
2023-04-28T02:46:00.168Z,5.83
2023-04-28T02:48:27.243Z,6.03
2023-04-28T02:50:53.988Z,5.60
2023-04-28T02:53:21.410Z,6.00
2023-04-28T02:55:48.320Z,5.57
2023-04-28T02:58:15.108Z,6.00
2023-04-28T03:00:41.964Z,5.90
2023-04-28T03:03:08.869Z,5.77
2023-04-28T03:05:35.708Z,5.70
2023-04-28T03:08:02.492Z,5.77
2023-04-28T03:10:29.189Z,5.53
2023-04-28T03:12:56.151Z,5.60
2023-04-28T03:15:22.791Z,5.47
2023-04-28T03:17:50.214Z,5.67
2023-04-28T03:20:17.013Z,5.70
2023-04-28T03:22:43.780Z,6.00
2023-04-28T03:25:10.582Z,5.73
2023-04-28T03:27:37.333Z,6.00
2023-04-28T03:30:04.355Z,6.20
2023-04-28T03:32:31.142Z,5.53
2023-04-28T03:34:57.927Z,5.53
2023-04-28T03:37:24.711Z,5.87
2023-04-28T03:39:51.462Z,5.77
2023-04-28T03:42:18.196Z,5.33
2023-04-28T03:44:47.930Z,5.77
2023-04-28T03:47:14.680Z,6.20
2023-04-28T03:49:41.390Z,6.60
2023-04-28T03:52:08.088Z,6.67
2023-04-28T03:54:36.449Z,6.07
2023-04-28T03:57:04.638Z,6.07
2023-04-28T03:59:31.658Z,5.57
2023-04-28T04:01:58.589Z,5.77
2023-04-28T04:04:26.456Z,5.10
2023-04-28T04:06:53.640Z,5.70
2023-04-28T04:09:20.482Z,5.63
2023-04-28T04:11:47.459Z,5.67
2023-04-28T04:14:14.277Z,6.30
2023-04-28T04:16:41.439Z,5.70
2023-04-28T04:19:08.129Z,6.30
2023-04-28T04:21:34.821Z,5.83
2023-04-28T04:24:01.709Z,5.87
2023-04-28T04:26:28.484Z,6.33
2023-04-28T04:28:55.148Z,6.50
2023-04-28T04:31:22.776Z,6.50
2023-04-28T04:33:49.701Z,6.30
2023-04-28T04:36:16.422Z,6.13
2023-04-28T04:38:43.132Z,6.67
2023-04-28T04:41:09.885Z,6.00
2023-04-28T04:43:36.772Z,6.63
2023-04-28T04:46:04.223Z,6.13
2023-04-28T04:48:31.121Z,5.40
2023-04-28T04:50:57.779Z,5.90
2023-04-28T04:53:24.625Z,5.80
2023-04-28T04:55:51.443Z,5.97
2023-04-28T04:58:18.356Z,5.73
2023-04-28T05:00:45.172Z,6.33
2023-04-28T05:03:12.161Z,6.33
2023-04-28T05:05:39.006Z,6.55
2023-04-28T05:08:05.996Z,6.10
2023-04-28T05:10:33.124Z,6.10
2023-04-28T05:12:59.845Z,6.73
2023-04-28T05:15:26.519Z,6.40
2023-04-28T05:17:53.219Z,6.57
2023-04-28T05:20:20.191Z,7.37
2023-04-28T05:22:47.012Z,7.33
2023-04-28T05:25:13.693Z,7.20
2023-04-28T05:27:41.119Z,7.17
2023-04-28T05:30:08.799Z,7.30
2023-04-28T05:32:36.746Z,7.83
2023-04-28T05:35:03.687Z,7.50
2023-04-28T05:37:30.608Z,7.77
2023-04-28T05:39:57.356Z,7.57
2023-04-28T05:42:31.404Z,8.10
2023-04-28T05:44:58.075Z,7.93
2023-04-28T05:47:24.792Z,8.73
2023-04-28T05:49:51.492Z,9.33
2023-04-28T05:52:18.239Z,8.40
2023-04-28T05:54:44.868Z,8.60
2023-04-28T05:57:11.697Z,9.80
2023-04-28T05:59:38.532Z,8.93
2023-04-28T06:02:05.303Z,9.17
2023-04-28T06:04:32.407Z,10.23
2023-04-28T06:06:59.521Z,10.20
2023-04-28T06:09:26.268Z,9.67
2023-04-28T06:11:54.530Z,10.77
2023-04-28T06:14:23.057Z,9.90
2023-04-28T06:16:50.950Z,10.50
2023-04-28T06:19:19.006Z,10.23
2023-04-28T06:21:46.463Z,10.60
2023-04-28T06:24:13.230Z,10.73
2023-04-28T06:26:40.283Z,10.50
2023-04-28T06:29:07.046Z,9.87
2023-04-28T06:31:33.791Z,10.80
2023-04-28T06:34:00.845Z,9.27
2023-04-28T06:36:28.281Z,10.03
2023-04-28T06:38:55.054Z,9.40
2023-04-28T06:41:22.056Z,9.87
2023-04-28T06:43:48.971Z,9.63
2023-04-28T06:46:15.924Z,8.60
2023-04-28T06:48:42.878Z,9.03
2023-04-28T06:51:09.493Z,8.53
2023-04-28T06:53:36.191Z,9.13
2023-04-28T06:56:03.225Z,8.37
2023-04-28T06:58:30.007Z,8.33
2023-04-28T07:00:57.141Z,7.50
2023-04-28T07:03:24.407Z,7.63
2023-04-28T07:05:51.210Z,8.10
2023-04-28T07:08:17.980Z,7.93
2023-04-28T07:10:44.722Z,8.03
2023-04-28T07:13:11.705Z,7.53
2023-04-28T07:15:39.749Z,7.43
2023-04-28T07:18:06.570Z,7.63
2023-04-28T07:20:33.375Z,7.60
2023-04-28T07:23:00.174Z,6.27
2023-04-28T07:25:33.722Z,7.53
2023-04-28T07:28:03.861Z,7.60
2023-04-28T07:30:30.917Z,7.17
2023-04-28T07:32:58.475Z,6.60
2023-04-28T07:35:25.677Z,7.23
2023-04-28T07:37:53.098Z,7.37
2023-04-28T07:40:20.637Z,7.37
2023-04-28T07:42:48.041Z,7.73
2023-04-28T07:45:16.287Z,7.80
2023-04-28T07:47:43.349Z,6.73
2023-04-28T07:50:12.176Z,6.87
2023-04-28T07:52:39.684Z,7.30
2023-04-28T07:55:07.128Z,6.43
2023-04-28T07:57:35.030Z,7.53
2023-04-28T08:00:02.761Z,7.10
2023-04-28T08:02:30.143Z,6.20
2023-04-28T08:04:57.410Z,5.87
2023-04-28T08:07:27.321Z,6.73
2023-04-28T08:09:55.293Z,5.83
2023-04-28T08:12:22.116Z,5.43
2023-04-28T08:14:49.096Z,6.40
2023-04-28T08:17:27.055Z,5.30
2023-04-28T08:19:53.926Z,6.10
2023-04-28T08:22:20.976Z,4.33
2023-04-28T08:24:47.808Z,4.60
2023-04-28T08:27:15.033Z,4.33
2023-04-28T08:29:42.250Z,4.30
2023-04-28T08:32:10.093Z,4.20
2023-04-28T08:34:36.878Z,3.53
2023-04-28T08:37:04.418Z,4.13
2023-04-28T08:39:31.891Z,3.20
2023-04-28T08:41:58.711Z,3.17
2023-04-28T08:44:25.701Z,3.27
2023-04-28T08:46:56.602Z,2.90
2023-04-28T08:49:28.268Z,3.20
2023-04-28T08:52:00.550Z,3.07
2023-04-28T08:54:32.784Z,2.70
2023-04-28T08:57:01.247Z,2.60
2023-04-28T08:59:28.209Z,2.77
2023-04-28T09:01:55.166Z,2.80
2023-04-28T09:04:22.469Z,2.60
2023-04-28T09:06:49.468Z,2.70
2023-04-28T09:09:32.597Z,2.63
2023-04-28T09:12:03.018Z,2.80
2023-04-28T09:14:36.855Z,2.80
2023-04-28T09:17:10.332Z,2.80
2023-04-28T09:19:43.075Z,2.67
2023-04-28T09:24:47.160Z,2.70
2023-04-28T09:27:15.575Z,2.20
2023-04-28T09:29:54.127Z,2.60
2023-04-28T09:32:23.443Z,2.40
2023-04-28T09:34:52.405Z,2.30
2023-04-28T09:37:32.084Z,2.33
2023-04-28T09:40:10.908Z,2.63
2023-04-28T09:42:42.552Z,2.40
2023-04-28T09:45:09.734Z,2.90
2023-04-28T09:47:39.484Z,2.70
2023-04-28T09:50:11.572Z,2.60
2023-04-28T09:52:39.454Z,2.60
2023-04-28T09:55:11.110Z,3.20
2023-04-28T09:57:39.951Z,3.20
2023-04-28T10:00:09.230Z,3.20
2023-04-28T10:05:11.121Z,3.10
2023-04-28T10:07:39.637Z,2.90
2023-04-28T10:10:07.872Z,2.60
2023-04-28T10:12:38.616Z,2.77
2023-04-28T10:15:07.154Z,2.73
2023-04-28T10:17:35.779Z,3.07
2023-04-28T10:20:06.068Z,3.10
2023-04-28T10:22:35.891Z,2.97
2023-04-28T10:25:15.625Z,2.80
2023-04-28T10:27:44.003Z,3.13
2023-04-28T10:33:14.251Z,3.07
2023-04-28T10:35:45.945Z,3.20
2023-04-28T10:38:13.895Z,3.13
2023-04-28T10:40:48.527Z,3.10
2023-04-28T10:43:25.703Z,3.50
2023-04-28T10:45:55.986Z,3.00
2023-04-28T10:48:27.883Z,3.20
2023-04-28T10:51:04.216Z,3.17
2023-04-28T10:53:47.424Z,3.30
2023-04-28T10:56:22.287Z,3.10
2023-04-28T10:58:50.897Z,3.60
2023-04-28T11:01:32.236Z,3.00
2023-04-28T11:04:15.905Z,3.97
2023-04-28T11:06:45.847Z,3.43
2023-04-28T11:09:12.576Z,3.47
2023-04-28T11:11:40.500Z,3.33
2023-04-28T11:14:19.493Z,3.67
2023-04-28T11:17:07.174Z,3.93
2023-04-28T11:19:46.321Z,3.50
2023-04-28T11:22:17.382Z,3.10
2023-04-28T11:25:16.677Z,3.60
2023-04-28T11:27:43.630Z,3.37
2023-04-28T11:30:22.367Z,3.37
2023-04-28T11:32:50.267Z,3.60
2023-04-28T11:35:17.905Z,3.63
2023-04-28T11:37:47.850Z,3.30
2023-04-28T11:40:15.478Z,3.50
2023-04-28T11:42:50.991Z,3.53
2023-04-28T11:45:21.820Z,3.63
2023-04-28T11:47:51.227Z,3.37
2023-04-28T11:50:37.854Z,3.33
2023-04-28T11:53:05.583Z,3.57
2023-04-28T11:55:33.093Z,3.50
2023-04-28T11:58:28.040Z,3.27
2023-04-28T12:01:13.539Z,3.20
2023-04-28T12:03:49.019Z,3.30
2023-04-28T12:09:21.446Z,3.00
2023-04-28T12:12:06.001Z,3.03
2023-04-28T12:14:53.645Z,3.30
2023-04-28T12:17:28.697Z,3.30
2023-04-28T12:19:56.874Z,3.40
2023-04-28T12:22:24.849Z,3.50
2023-04-28T12:25:04.765Z,3.20
2023-04-28T12:27:32.138Z,3.20
2023-04-28T12:29:58.927Z,3.20
2023-04-28T12:32:45.353Z,3.30
2023-04-28T12:35:12.254Z,3.17
2023-04-28T12:37:39.977Z,3.23
2023-04-28T12:40:07.525Z,3.83
2023-04-28T12:42:34.657Z,2.90
2023-04-28T12:45:01.473Z,2.90
2023-04-28T12:47:28.506Z,3.00
2023-04-28T12:49:55.286Z,3.23
2023-04-28T12:52:22.691Z,2.90
2023-04-28T12:54:49.544Z,3.10
2023-04-28T12:57:18.717Z,3.40
2023-04-28T12:59:47.273Z,3.50
2023-04-28T13:02:15.331Z,2.77
2023-04-28T13:04:43.226Z,3.10
2023-04-28T13:07:10.044Z,3.23
2023-04-28T13:09:38.553Z,3.20
2023-04-28T13:12:05.606Z,3.50
2023-04-28T13:14:32.788Z,3.37
2023-04-28T13:17:01.647Z,3.27
2023-04-28T13:19:29.684Z,3.90
2023-04-28T13:21:56.420Z,3.23
2023-04-28T13:24:23.240Z,3.30
2023-04-28T13:26:50.077Z,3.90
2023-04-28T13:29:17.031Z,3.63
2023-04-28T13:31:43.834Z,2.90
2023-04-28T13:34:16.004Z,3.40
2023-04-28T13:36:44.101Z,3.50
2023-04-28T13:39:13.577Z,3.63
2023-04-28T13:41:40.780Z,2.97
2023-04-28T13:44:07.646Z,3.33
2023-04-28T13:46:34.533Z,3.33
2023-04-28T13:49:01.794Z,3.70
2023-04-28T13:51:28.831Z,3.37
2023-04-28T13:53:55.826Z,3.60
2023-04-28T13:56:22.547Z,3.30
2023-04-28T13:58:49.280Z,3.20
2023-04-28T14:01:16.120Z,3.43
2023-04-28T14:03:44.345Z,3.83
2023-04-28T14:06:11.362Z,2.90
2023-04-28T14:08:38.357Z,3.43
2023-04-28T14:11:05.185Z,3.63
2023-04-28T14:13:31.959Z,3.73
2023-04-28T14:15:59.820Z,3.40
2023-04-28T14:18:27.529Z,3.30
2023-04-28T14:20:55.046Z,3.30
2023-04-28T14:23:22.768Z,3.57
2023-04-28T14:25:50.349Z,4.90
2023-04-28T14:28:17.510Z,8.80
2023-04-28T14:30:44.409Z,9.97
2023-04-28T14:33:11.419Z,3.53
2023-04-28T14:35:38.233Z,3.53
2023-04-28T14:38:04.875Z,3.73
2023-04-28T14:40:32.070Z,3.47
2023-04-28T14:42:58.825Z,3.77
2023-04-28T14:45:25.848Z,3.30
2023-04-28T14:47:53.050Z,3.70
2023-04-28T14:50:19.793Z,3.83
2023-04-28T14:52:46.491Z,4.03
2023-04-28T14:55:13.723Z,3.83
2023-04-28T14:57:40.581Z,4.17
2023-04-28T15:00:08.122Z,3.90
2023-04-28T15:02:36.269Z,4.40
2023-04-28T15:05:03.559Z,4.47
2023-04-28T15:07:33.088Z,4.10
2023-04-28T15:10:00.092Z,4.63
2023-04-28T15:12:27.082Z,4.23
2023-04-28T15:14:54.059Z,4.70
2023-04-28T15:17:21.521Z,4.80
2023-04-28T15:19:48.315Z,6.27
2023-04-28T15:22:15.587Z,5.03
2023-04-28T15:24:42.322Z,5.43
2023-04-28T15:27:09.135Z,5.03
2023-04-28T15:29:35.837Z,5.30
2023-04-28T15:32:02.631Z,4.20
2023-04-28T15:34:29.420Z,4.70
2023-04-28T15:36:56.699Z,4.50
2023-04-28T15:39:25.100Z,4.80
2023-04-28T15:41:53.002Z,4.40
2023-04-28T15:44:19.933Z,4.53
2023-04-28T15:46:46.730Z,4.67
2023-04-28T15:49:13.848Z,4.53
2023-04-28T15:51:40.534Z,4.73
2023-04-28T15:54:07.178Z,4.67
2023-04-28T15:56:34.150Z,5.53
2023-04-28T15:59:00.788Z,4.00
2023-04-28T16:01:28.456Z,4.47
2023-04-28T16:03:55.315Z,4.60
2023-04-28T16:06:22.145Z,4.43
2023-04-28T16:08:48.896Z,4.30
2023-04-28T16:11:19.378Z,4.40
2023-04-28T16:13:46.054Z,4.47
2023-04-28T16:16:12.818Z,4.53
2023-04-28T16:18:39.638Z,4.30
2023-04-28T16:21:06.523Z,4.07
2023-04-28T16:23:33.407Z,4.20
2023-04-28T16:26:00.206Z,4.53
2023-04-28T16:28:27.120Z,4.30
2023-04-28T16:30:54.004Z,4.33
2023-04-28T16:33:20.801Z,4.53
2023-04-28T16:35:54.920Z,4.17
2023-04-28T16:38:22.162Z,4.97
2023-04-28T16:40:49.465Z,3.93
2023-04-28T16:43:16.565Z,5.47
2023-04-28T16:45:43.766Z,5.00
2023-04-28T16:48:11.013Z,4.27
2023-04-28T16:50:40.798Z,4.67
2023-04-28T16:53:08.184Z,4.83
2023-04-28T16:55:39.173Z,4.20
2023-04-28T16:58:06.393Z,4.27
2023-04-28T17:00:33.263Z,4.23
2023-04-28T17:03:00.102Z,4.60
2023-04-28T17:05:26.938Z,4.17
2023-04-28T17:07:55.114Z,4.30
2023-04-28T17:10:22.760Z,5.63
2023-04-28T17:12:49.515Z,4.73
2023-04-28T17:15:19.506Z,6.77
2023-04-28T17:17:49.858Z,7.77
2023-04-28T17:20:18.220Z,5.23
2023-04-28T17:22:45.040Z,5.53
2023-04-28T17:25:12.437Z,6.50
2023-04-28T17:27:39.449Z,6.37
2023-04-28T17:30:10.588Z,9.17
2023-04-28T17:32:38.016Z,6.40
2023-04-28T17:35:05.420Z,5.97
2023-04-28T17:37:34.196Z,5.17
2023-04-28T17:40:02.012Z,5.70
2023-04-28T17:42:31.459Z,7.20
2023-04-28T17:44:58.157Z,7.20
2023-04-28T17:47:25.016Z,7.20
2023-04-28T17:49:52.257Z,6.40
2023-04-28T17:52:19.046Z,6.23
2023-04-28T17:54:45.814Z,6.30
2023-04-28T17:57:13.221Z,7.87
2023-04-28T17:59:40.692Z,6.60
2023-04-28T18:02:11.559Z,7.13
2023-04-28T18:04:38.477Z,6.23
2023-04-28T18:07:07.798Z,5.97
2023-04-28T18:09:34.545Z,6.97
2023-04-28T18:12:03.134Z,8.53
2023-04-28T18:14:34.014Z,7.77
2023-04-28T18:17:01.112Z,7.83
2023-04-28T18:19:30.211Z,7.80
2023-04-28T18:21:57.162Z,7.80
2023-04-28T18:24:25.945Z,7.37
2023-04-28T18:26:54.083Z,7.50
2023-04-28T18:29:20.851Z,8.43
2023-04-28T18:31:47.743Z,8.73
2023-04-28T18:34:14.487Z,7.67
2023-04-28T18:36:41.205Z,7.40
2023-04-28T18:39:08.988Z,7.73
2023-04-28T18:41:36.584Z,7.47
2023-04-28T18:44:03.484Z,7.60
2023-04-28T18:46:31.088Z,8.80
2023-04-28T18:48:58.040Z,8.10
2023-04-28T18:51:24.885Z,9.03
2023-04-28T18:53:51.642Z,8.43
2023-04-28T18:56:18.466Z,8.70
2023-04-28T18:58:47.219Z,11.20
2023-04-28T19:01:15.273Z,15.90
2023-04-28T19:03:42.444Z,10.83
2023-04-28T19:06:10.810Z,12.53
2023-04-28T19:08:42.800Z,12.57
2023-04-28T19:11:09.849Z,10.27
2023-04-28T19:13:37.507Z,12.10
2023-04-28T19:16:05.259Z,11.77
2023-04-28T19:18:33.213Z,10.53
2023-04-28T19:21:01.405Z,9.27
2023-04-28T19:23:29.104Z,8.93
2023-04-28T19:25:57.025Z,10.10
2023-04-28T19:28:26.054Z,8.53
2023-04-28T19:30:56.586Z,8.27
2023-04-28T19:33:27.127Z,9.13
2023-04-28T19:35:54.822Z,7.77
2023-04-28T19:38:25.435Z,8.70
2023-04-28T19:41:01.539Z,8.43
2023-04-28T19:43:28.310Z,8.60
2023-04-28T19:45:55.102Z,7.83
2023-04-28T19:48:21.999Z,8.83
2023-04-28T19:50:48.824Z,8.53
2023-04-28T19:53:15.565Z,8.90
2023-04-28T19:55:42.304Z,8.03
2023-04-28T19:58:10.554Z,8.37
2023-04-28T20:00:37.326Z,7.83
2023-04-28T20:03:04.142Z,7.87
2023-04-28T20:05:31.381Z,7.83
2023-04-28T20:07:58.131Z,8.13
2023-04-28T20:10:25.080Z,7.83
2023-04-28T20:12:53.725Z,8.23
2023-04-28T20:15:20.772Z,9.07
2023-04-28T20:17:47.650Z,7.53
2023-04-28T20:20:14.414Z,8.70
2023-04-28T20:22:41.318Z,8.27
2023-04-28T20:25:10.505Z,7.93
2023-04-28T20:27:37.509Z,9.47
2023-04-28T20:30:04.947Z,8.10
2023-04-28T20:32:31.998Z,8.97
2023-04-28T20:34:59.011Z,8.63
2023-04-28T20:37:26.563Z,8.50
2023-04-28T20:39:53.658Z,9.17
2023-04-28T20:42:20.557Z,8.60
2023-04-28T20:44:47.219Z,9.43
2023-04-28T20:47:14.087Z,9.80
2023-04-28T20:49:41.879Z,9.53
2023-04-28T20:52:09.111Z,9.30
2023-04-28T20:54:36.485Z,9.03
2023-04-28T20:57:04.575Z,9.37
2023-04-28T20:59:32.774Z,8.90
2023-04-28T21:02:00.049Z,8.83
2023-04-28T21:04:28.606Z,10.23
2023-04-28T21:06:55.675Z,13.20
2023-04-28T21:09:25.087Z,8.40
2023-04-28T21:11:53.766Z,9.30
2023-04-28T21:14:21.746Z,7.57
2023-04-28T21:16:48.477Z,7.77
2023-04-28T21:19:15.474Z,8.37
2023-04-28T21:21:42.146Z,8.50
2023-04-28T21:24:10.208Z,7.70
2023-04-28T21:26:37.065Z,7.60
2023-04-28T21:29:03.753Z,7.57
2023-04-28T21:31:31.303Z,7.37
2023-04-28T21:33:58.303Z,7.83
2023-04-28T21:36:25.071Z,6.80
2023-04-28T21:38:51.886Z,7.90
2023-04-28T21:41:18.684Z,7.10
2023-04-28T21:43:45.319Z,6.57
2023-04-28T21:46:13.083Z,6.87
2023-04-28T21:48:39.995Z,7.00
2023-04-28T21:51:06.670Z,7.17
2023-04-28T21:53:33.583Z,6.37
2023-04-28T21:56:00.388Z,6.33
2023-04-28T21:58:27.159Z,6.50
2023-04-28T22:00:55.238Z,6.20
2023-04-28T22:03:22.412Z,6.80
2023-04-28T22:05:49.324Z,6.10
2023-04-28T22:08:17.070Z,6.20
2023-04-28T22:10:45.481Z,6.50
2023-04-28T22:13:13.031Z,5.60
2023-04-28T22:15:39.869Z,6.40
2023-04-28T22:18:08.011Z,6.57
2023-04-28T22:20:34.822Z,6.00
2023-04-28T22:23:01.532Z,5.73
2023-04-28T22:25:28.259Z,6.37
2023-04-28T22:27:54.953Z,6.47
2023-04-28T22:30:24.354Z,6.13
2023-04-28T22:32:52.466Z,6.20
2023-04-28T22:35:19.640Z,6.27
2023-04-28T22:37:46.321Z,7.03
2023-04-28T22:40:13.283Z,6.37
2023-04-28T22:42:41.824Z,6.23
2023-04-28T22:45:10.164Z,6.70
2023-04-28T22:47:43.557Z,6.60
2023-04-28T22:50:11.501Z,6.50
2023-04-28T22:52:38.620Z,6.50
2023-04-28T22:55:06.453Z,6.00
2023-04-28T22:57:33.458Z,5.87
2023-04-28T23:00:00.252Z,5.80
2023-04-28T23:02:27.101Z,6.13
2023-04-28T23:04:54.066Z,6.30
2023-04-28T23:07:20.840Z,6.33
2023-04-28T23:09:47.549Z,6.40
2023-04-28T23:12:14.266Z,6.57
2023-04-28T23:14:40.909Z,6.53
2023-04-28T23:17:07.648Z,5.90
2023-04-28T23:19:39.249Z,5.93
2023-04-28T23:22:07.710Z,5.90
2023-04-28T23:24:36.716Z,7.00
2023-04-28T23:27:03.699Z,6.27
2023-04-28T23:29:30.460Z,5.97
2023-04-28T23:31:57.259Z,6.33
2023-04-28T23:34:24.890Z,6.23
2023-04-28T23:36:51.782Z,6.30
2023-04-28T23:39:18.583Z,6.77
2023-04-28T23:41:45.326Z,6.00
2023-04-28T23:44:12.030Z,6.80
2023-04-28T23:46:38.809Z,6.73
2023-04-28T23:49:05.582Z,7.00
2023-04-28T23:51:32.404Z,7.17
2023-04-28T23:53:59.429Z,6.70
2023-04-28T23:56:26.858Z,7.03
2023-04-28T23:58:54.154Z,6.80
